Time;durP1;ratioP1;P1;durP2;ratioP2;P2;SDS_P1;SDS_P2;PMS_P1;PMS_P2;Temp;Humidity;BMP_temperature;BMP_pressure;BME280_temperature;BME280_humidity;BME280_pressure;Samples;Min_cycle;Max_cycle;Signal;HPM_P1;HPM_P2
2023/08/27 00:02:30;;;;;;;4.93;0.82;;;22.00;71.10;;;;;;7594254;23;20071;-76
2023/08/27 00:05:31;;;;;;;4.03;0.57;;;22.00;71.00;;;;;;7594831;23;20057;-76
2023/08/27 00:08:31;;;;;;;1.48;0.60;;;22.00;71.00;;;;;;7594541;23;20020;-75
2023/08/27 00:11:32;;;;;;;1.88;0.90;;;22.10;71.00;;;;;;7568554;23;20104;-75
2023/08/27 00:14:33;;;;;;;2.20;0.60;;;22.10;70.80;;;;;;7594353;23;20042;-75
2023/08/27 00:17:35;;;;;;;3.38;1.00;;;22.10;70.70;;;;;;7567590;23;20017;-73
2023/08/27 00:20:35;;;;;;;5.03;0.70;;;22.20;70.50;;;;;;7594445;23;20018;-75
2023/08/27 00:23:39;;;;;;;2.70;0.98;;;22.20;70.40;;;;;;7594767;23;20710;-75
2023/08/27 00:26:40;;;;;;;2.55;1.23;;;22.20;70.40;;;;;;7568313;23;20018;-76
2023/08/27 00:29:41;;;;;;;1.42;0.50;;;22.20;70.60;;;;;;7568151;23;20016;-76
2023/08/27 00:32:42;;;;;;;2.10;0.80;;;22.20;70.70;;;;;;7568592;23;20097;-75
2023/08/27 00:35:48;;;;;;;4.10;0.60;;;22.20;70.70;;;;;;7568604;23;20065;-77
2023/08/27 00:38:49;;;;;;;1.15;0.40;;;22.20;70.50;;;;;;7595280;23;20154;-75
2023/08/27 00:41:50;;;;;;;2.78;0.60;;;22.20;70.40;;;;;;7569021;23;20299;-76
2023/08/27 00:44:51;;;;;;;2.53;0.55;;;22.20;70.50;;;;;;7594979;23;20337;-76
2023/08/27 00:47:52;;;;;;;2.25;0.70;;;22.20;70.50;;;;;;7568279;23;20018;-75
2023/08/27 00:50:53;;;;;;;2.75;0.75;;;22.30;70.40;;;;;;7567424;23;20049;-75
2023/08/27 00:53:54;;;;;;;5.68;0.80;;;22.30;70.20;;;;;;7567984;23;20055;-75
2023/08/27 00:56:55;;;;;;;1.75;0.57;;;22.20;70.00;;;;;;7543999;23;20152;-74
2023/08/27 00:59:58;;;;;;;2.35;0.60;;;22.10;70.10;;;;;;7568087;23;20537;-75
2023/08/27 01:02:58;;;;;;;3.35;0.98;;;22.10;70.50;;;;;;7568745;23;20017;-75
2023/08/27 01:05:59;;;;;;;5.78;0.70;;;22.00;70.50;;;;;;7567412;23;20265;-75
2023/08/27 01:09:10;;;;;;;0.75;0.57;;;22.00;70.50;;;;;;7567238;23;20730;-75
2023/08/27 01:12:23;;;;;;;1.35;0.60;;;22.00;70.60;;;;;;7594253;23;20010;-75
2023/08/27 01:15:26;;;;;;;1.15;0.70;;;22.00;70.60;;;;;;7591985;23;20046;-76
2023/08/27 01:18:28;;;;;;;2.10;0.50;;;22.00;70.60;;;;;;7592015;23;20021;-75
2023/08/27 01:21:29;;;;;;;1.42;0.60;;;22.00;70.70;;;;;;7566498;23;20277;-75
2023/08/27 01:24:30;;;;;;;1.05;0.80;;;22.10;70.70;;;;;;7567104;23;20010;-74
2023/08/27 01:27:39;;;;;;;0.63;0.50;;;22.00;70.60;;;;;;7593578;23;20182;-74
2023/08/27 01:31:05;;;;;;;1.58;0.52;;;22.00;70.30;;;;;;7593360;23;20499;-75
2023/08/27 01:34:08;;;;;;;4.22;0.60;;;22.00;70.50;;;;;;7457566;23;20482;-76
2023/08/27 01:37:13;;;;;;;1.02;0.55;;;22.00;70.50;;;;;;7458062;23;20011;-76
2023/08/27 01:40:13;;;;;;;3.47;0.80;;;22.00;70.60;;;;;;7457506;23;20433;-74
2023/08/27 01:43:14;;;;;;;1.13;0.40;;;21.90;70.50;;;;;;7481804;23;20067;-75
2023/08/27 01:46:15;;;;;;;1.40;0.80;;;21.90;70.60;;;;;;7458057;23;20015;-75
2023/08/27 01:49:16;;;;;;;1.42;0.55;;;21.90;70.60;;;;;;7481404;23;20130;-74
2023/08/27 01:52:17;;;;;;;1.38;0.50;;;21.80;70.80;;;;;;7481435;23;20018;-76
2023/08/27 01:55:18;;;;;;;1.67;0.40;;;21.80;71.00;;;;;;7481296;23;20022;-75
2023/08/27 01:58:19;;;;;;;1.88;0.60;;;21.90;71.30;;;;;;7481197;23;20082;-74
2023/08/27 02:01:20;;;;;;;0.43;0.40;;;21.90;71.40;;;;;;7481598;23;20066;-74
2023/08/27 02:04:21;;;;;;;2.20;0.75;;;21.90;71.30;;;;;;7458009;23;20083;-74
2023/08/27 02:07:22;;;;;;;1.63;0.80;;;21.90;71.30;;;;;;7457180;23;20044;-75
2023/08/27 02:10:22;;;;;;;2.20;0.85;;;21.90;71.20;;;;;;7522326;23;20056;-74
2023/08/27 02:13:25;;;;;;;1.08;0.60;;;22.00;71.20;;;;;;7567125;23;20129;-74
2023/08/27 02:16:26;;;;;;;0.88;0.43;;;22.00;71.00;;;;;;7566878;23;20122;-75
2023/08/27 02:19:27;;;;;;;1.60;0.60;;;21.90;70.60;;;;;;7592396;23;20010;-75
2023/08/27 02:22:28;;;;;;;2.85;0.50;;;21.90;70.70;;;;;;7592742;23;20014;-74
2023/08/27 02:25:29;;;;;;;3.28;0.47;;;21.90;70.90;;;;;;7566820;23;20079;-75
2023/08/27 02:28:30;;;;;;;1.83;0.70;;;21.90;71.00;;;;;;7566415;23;20025;-74
2023/08/27 02:31:31;;;;;;;2.30;0.55;;;21.90;71.20;;;;;;7566199;23;20017;-75
2023/08/27 02:34:32;;;;;;;2.95;0.47;;;21.80;71.20;;;;;;7592736;23;20010;-75
2023/08/27 02:37:33;;;;;;;2.63;0.57;;;21.80;71.20;;;;;;7542554;23;20163;-76
2023/08/27 02:40:34;;;;;;;3.78;0.60;;;21.80;71.20;;;;;;7566652;23;20014;-75
2023/08/27 02:43:36;;;;;;;5.05;0.98;;;21.80;71.30;;;;;;7566733;23;20017;-74
2023/08/27 02:46:37;;;;;;;1.33;0.50;;;21.80;71.50;;;;;;7566612;23;20080;-74
2023/08/27 02:49:39;;;;;;;1.67;0.60;;;21.80;71.50;;;;;;7566185;23;20006;-75
2023/08/27 02:52:39;;;;;;;1.13;0.43;;;21.80;71.40;;;;;;7593222;23;20010;-74
2023/08/27 02:55:40;;;;;;;3.22;0.70;;;21.90;71.50;;;;;;7592871;23;20644;-73
2023/08/27 02:58:41;;;;;;;3.63;0.60;;;21.90;71.40;;;;;;7566356;23;20129;-74
2023/08/27 03:01:42;;;;;;;2.47;0.70;;;21.90;71.40;;;;;;7565978;23;20581;-73
2023/08/27 03:04:43;;;;;;;1.75;0.65;;;21.90;71.30;;;;;;7565848;23;20041;-74
2023/08/27 03:07:44;;;;;;;1.40;0.45;;;21.90;71.20;;;;;;7565866;23;20026;-75
2023/08/27 03:10:45;;;;;;;2.05;0.52;;;21.90;71.10;;;;;;7592761;23;20431;-75
2023/08/27 03:13:47;;;;;;;0.95;0.45;;;21.90;71.10;;;;;;7565937;23;20018;-75
2023/08/27 03:16:48;;;;;;;2.50;0.47;;;21.90;71.20;;;;;;7566364;23;20057;-74
2023/08/27 03:19:49;;;;;;;1.35;0.50;;;21.90;71.20;;;;;;7592480;23;20103;-75
2023/08/27 03:22:50;;;;;;;1.08;0.47;;;21.90;71.00;;;;;;7566876;23;20017;-75
2023/08/27 03:25:51;;;;;;;0.55;0.20;;;21.90;70.90;;;;;;7566514;23;20131;-75
2023/08/27 03:28:52;;;;;;;0.93;0.30;;;21.90;71.00;;;;;;7591045;23;20021;-74
2023/08/27 03:31:53;;;;;;;0.80;0.60;;;21.80;71.10;;;;;;7566515;23;20307;-75
2023/08/27 03:34:54;;;;;;;1.50;0.50;;;21.80;71.40;;;;;;7566855;23;20093;-74
2023/08/27 03:37:55;;;;;;;2.92;0.98;;;21.90;71.80;;;;;;7566614;23;20017;-75
2023/08/27 03:40:56;;;;;;;0.98;0.70;;;21.90;71.80;;;;;;7566271;23;20042;-74
2023/08/27 03:43:57;;;;;;;3.10;0.88;;;21.80;71.90;;;;;;7566066;23;20394;-73
2023/08/27 03:46:58;;;;;;;3.75;1.35;;;21.80;72.00;;;;;;7542373;23;20018;-73
2023/08/27 03:49:59;;;;;;;2.60;0.93;;;21.60;72.20;;;;;;7593077;23;20275;-74
2023/08/27 03:53:00;;;;;;;3.20;0.80;;;21.70;72.50;;;;;;7568490;23;20010;-74
2023/08/27 03:56:04;;;;;;;1.40;1.00;;;21.70;72.80;;;;;;7544013;23;20086;-73
2023/08/27 03:59:06;;;;;;;1.92;0.80;;;21.70;73.00;;;;;;7568329;23;20104;-74
2023/08/27 04:02:11;;;;;;;2.42;0.80;;;21.70;73.10;;;;;;7595042;23;20554;-74
2023/08/27 04:05:12;;;;;;;3.10;0.73;;;21.70;73.20;;;;;;7568064;23;20018;-74
2023/08/27 04:08:13;;;;;;;0.50;0.50;;;21.70;73.20;;;;;;7594625;23;20006;-75
2023/08/27 04:11:15;;;;;;;1.58;0.80;;;21.70;73.30;;;;;;7568298;23;20016;-74
2023/08/27 04:14:16;;;;;;;2.70;1.02;;;21.70;73.20;;;;;;7544654;23;20052;-75
2023/08/27 04:17:17;;;;;;;1.83;0.90;;;21.70;73.30;;;;;;7568757;23;20096;-75
2023/08/27 04:20:18;;;;;;;2.58;0.80;;;21.70;73.20;;;;;;7594775;23;20096;-76
2023/08/27 04:23:19;;;;;;;8.63;1.33;;;21.70;73.00;;;;;;7594901;23;20017;-76
2023/08/27 04:26:20;;;;;;;2.25;1.08;;;21.70;73.10;;;;;;7568297;23;20108;-75
2023/08/27 04:29:22;;;;;;;2.90;0.88;;;21.60;73.10;;;;;;7568197;23;20664;-76
2023/08/27 04:32:23;;;;;;;1.02;0.75;;;21.70;73.30;;;;;;7567933;23;20101;-74
2023/08/27 04:35:23;;;;;;;7.90;0.80;;;21.70;73.40;;;;;;7567918;23;20013;-74
2023/08/27 04:38:24;;;;;;;2.17;0.73;;;21.70;73.30;;;;;;7543893;23;20088;-75
2023/08/27 04:41:25;;;;;;;0.40;0.40;;;21.70;73.20;;;;;;7568024;23;20021;-75
2023/08/27 04:44:26;;;;;;;0.80;0.73;;;21.70;73.20;;;;;;7567577;23;20407;-73
2023/08/27 04:47:28;;;;;;;2.35;0.70;;;21.70;72.80;;;;;;7594239;23;20029;-73
2023/08/27 04:50:28;;;;;;;1.63;0.63;;;21.70;72.90;;;;;;7593812;23;20010;-75
2023/08/27 04:53:29;;;;;;;0.45;0.38;;;21.70;73.20;;;;;;7543814;23;20033;-74
2023/08/27 04:56:30;;;;;;;3.53;0.50;;;21.70;73.20;;;;;;7567611;23;20017;-74
2023/08/27 04:59:31;;;;;;;0.50;0.40;;;21.70;73.20;;;;;;7567584;23;20435;-74
2023/08/27 05:02:32;;;;;;;0.75;0.43;;;21.70;73.20;;;;;;7543721;23;20013;-74
2023/08/27 05:05:32;;;;;;;2.92;0.60;;;21.80;73.20;;;;;;7593057;23;20138;-77
2023/08/27 05:08:33;;;;;;;0.57;0.50;;;21.70;73.00;;;;;;7566610;23;20021;-75
2023/08/27 05:11:34;;;;;;;3.08;0.50;;;21.80;72.90;;;;;;7567040;23;20621;-74
2023/08/27 05:14:36;;;;;;;1.73;0.70;;;21.80;72.80;;;;;;7543560;23;20517;-75
2023/08/27 05:17:37;;;;;;;1.10;0.57;;;21.80;72.60;;;;;;7567343;23;20065;-75
2023/08/27 05:20:38;;;;;;;0.57;0.40;;;21.80;72.40;;;;;;7566811;23;20024;-75
2023/08/27 05:23:39;;;;;;;2.00;0.68;;;21.90;72.50;;;;;;7567382;23;20498;-74
2023/08/27 05:26:41;;;;;;;3.38;0.85;;;21.90;72.60;;;;;;7592852;23;20025;-75
2023/08/27 05:29:42;;;;;;;11.93;1.40;;;21.90;72.50;;;;;;7566461;23;20025;-75
2023/08/27 05:32:43;;;;;;;0.50;0.50;;;22.00;72.20;;;;;;7593128;23;20032;-74
2023/08/27 05:35:44;;;;;;;2.30;0.70;;;22.00;72.00;;;;;;7567169;23;20009;-77
2023/08/27 05:38:45;;;;;;;0.60;0.60;;;22.00;72.00;;;;;;7593817;23;20476;-75
2023/08/27 05:41:46;;;;;;;1.67;0.63;;;22.00;71.80;;;;;;7593216;23;20295;-76
2023/08/27 05:44:46;;;;;;;0.50;0.50;;;22.00;71.80;;;;;;7566474;23;20018;-74
2023/08/27 05:47:48;;;;;;;0.50;0.40;;;22.00;71.90;;;;;;7566614;23;20392;-75
2023/08/27 05:50:49;;;;;;;2.50;0.50;;;22.10;72.00;;;;;;7566515;23;20040;-74
2023/08/27 05:53:50;;;;;;;2.72;0.60;;;22.10;71.70;;;;;;7567050;23;20017;-75
2023/08/27 05:56:51;;;;;;;2.83;0.50;;;22.10;71.50;;;;;;7566477;23;20111;-75
2023/08/27 05:59:52;;;;;;;1.65;0.70;;;22.20;71.40;;;;;;7566175;23;20152;-76
2023/08/27 06:02:53;;;;;;;0.82;0.57;;;22.20;71.40;;;;;;7566821;23;20056;-74
2023/08/27 06:05:54;;;;;;;1.52;0.70;;;22.20;71.40;;;;;;7592736;23;20446;-74
2023/08/27 06:08:55;;;;;;;1.13;0.50;;;22.30;71.30;;;;;;7542343;23;20025;-74
2023/08/27 06:11:58;;;;;;;0.70;0.60;;;22.30;71.30;;;;;;7566041;23;20065;-74
2023/08/27 06:14:59;;;;;;;2.40;0.70;;;22.30;71.40;;;;;;7592002;23;20088;-75
2023/08/27 06:18:03;;;;;;;3.58;0.68;;;22.30;71.30;;;;;;7542379;23;20013;-74
2023/08/27 06:21:03;;;;;;;0.77;0.52;;;22.20;71.20;;;;;;7565965;23;20014;-76
2023/08/27 06:24:04;;;;;;;0.32;0.32;;;22.20;71.40;;;;;;7566734;23;20010;-75
2023/08/27 06:27:05;;;;;;;1.48;0.40;;;22.20;71.40;;;;;;7566000;23;20539;-75
2023/08/27 06:30:08;;;;;;;0.45;0.40;;;22.20;71.30;;;;;;7566091;23;20101;-75
2023/08/27 06:33:10;;;;;;;1.00;0.60;;;22.20;71.30;;;;;;7566728;23;20158;-75
2023/08/27 06:36:11;;;;;;;0.57;0.40;;;22.20;71.40;;;;;;7566464;23;20017;-75
2023/08/27 06:39:12;;;;;;;2.95;0.30;;;22.20;71.40;;;;;;7592911;23;20070;-75
2023/08/27 06:42:13;;;;;;;1.90;0.68;;;22.20;71.50;;;;;;7566937;23;20081;-74
2023/08/27 06:45:14;;;;;;;1.25;0.77;;;22.30;71.40;;;;;;7566433;23;20045;-75
2023/08/27 06:48:15;;;;;;;0.57;0.50;;;22.30;71.40;;;;;;7592627;23;20398;-74
2023/08/27 06:51:16;;;;;;;2.22;0.30;;;22.30;71.30;;;;;;7542233;23;20025;-75
2023/08/27 06:54:17;;;;;;;0.50;0.40;;;22.30;71.40;;;;;;7566580;23;20478;-75
2023/08/27 06:57:20;;;;;;;1.33;0.35;;;22.30;71.30;;;;;;7592756;23;20065;-75
2023/08/27 07:00:21;;;;;;;2.00;0.45;;;22.30;71.10;;;;;;7592916;23;20131;-75
2023/08/27 07:03:22;;;;;;;2.88;0.30;;;22.30;71.10;;;;;;7567535;23;20093;-74
2023/08/27 07:06:24;;;;;;;0.38;0.38;;;22.30;70.90;;;;;;7567058;23;20020;-75
2023/08/27 07:09:27;;;;;;;1.98;0.75;;;22.30;70.70;;;;;;7566089;23;20021;-75
2023/08/27 07:12:28;;;;;;;3.13;0.70;;;22.30;70.80;;;;;;7567241;23;20028;-77
2023/08/27 07:15:29;;;;;;;2.25;0.95;;;22.30;70.90;;;;;;7566693;23;20320;-76
2023/08/27 07:18:30;;;;;;;0.85;0.50;;;22.30;71.10;;;;;;7542578;23;20018;-74
2023/08/27 07:21:31;;;;;;;1.52;0.52;;;22.30;71.00;;;;;;7566038;23;20065;-75
2023/08/27 07:24:32;;;;;;;1.33;0.55;;;22.40;71.00;;;;;;7567286;23;20013;-74
2023/08/27 07:27:36;;;;;;;1.75;0.70;;;22.40;70.80;;;;;;7594814;23;20014;-74
2023/08/27 07:30:37;;;;;;;2.13;0.68;;;22.40;70.80;;;;;;7568670;23;20113;-74
2023/08/27 07:33:39;;;;;;;3.08;0.82;;;22.40;70.70;;;;;;7568826;23;20037;-75
2023/08/27 07:36:40;;;;;;;1.08;0.65;;;22.40;70.60;;;;;;7569070;23;20160;-74
2023/08/27 07:39:41;;;;;;;0.73;0.70;;;22.40;70.70;;;;;;7568203;23;20018;-75
2023/08/27 07:42:42;;;;;;;1.48;0.77;;;22.50;70.70;;;;;;7594906;23;20018;-76
2023/08/27 07:45:42;;;;;;;4.78;0.73;;;22.50;70.60;;;;;;7568068;23;20105;-76
2023/08/27 07:48:43;;;;;;;0.80;0.80;;;22.50;70.40;;;;;;7567826;23;20081;-74
2023/08/27 07:51:45;;;;;;;1.63;0.70;;;22.50;70.90;;;;;;7567550;23;20079;-73
2023/08/27 07:54:46;;;;;;;1.67;0.60;;;22.50;70.40;;;;;;7567846;23;20096;-74
2023/08/27 07:57:47;;;;;;;0.70;0.60;;;22.50;70.50;;;;;;7568877;23;20009;-72
2023/08/27 08:00:55;;;;;;;2.83;0.60;;;22.50;70.50;;;;;;7567677;23;20051;-75
2023/08/27 08:03:57;;;;;;;2.05;1.08;;;22.60;70.60;;;;;;7567641;23;20014;-74
2023/08/27 08:06:58;;;;;;;4.85;3.17;;;22.60;70.50;;;;;;7593345;23;20354;-73
2023/08/27 08:09:58;;;;;;;3.67;1.92;;;22.70;70.30;;;;;;7593290;23;20021;-74
2023/08/27 08:12:59;;;;;;;3.63;1.42;;;22.70;70.20;;;;;;7593863;23;20010;-74
2023/08/27 08:16:00;;;;;;;3.33;1.05;;;22.70;69.90;;;;;;7594335;23;20074;-73
2023/08/27 08:19:01;;;;;;;3.40;1.00;;;22.70;69.70;;;;;;7593618;23;20022;-73
2023/08/27 08:22:02;;;;;;;0.90;0.63;;;22.70;69.70;;;;;;7594564;23;20017;-74
2023/08/27 08:25:07;;;;;;;5.13;0.68;;;22.80;69.90;;;;;;7594061;23;20486;-75
2023/08/27 08:28:08;;;;;;;1.75;0.85;;;22.70;69.90;;;;;;7593868;23;20097;-73
2023/08/27 08:31:09;;;;;;;7.47;1.05;;;22.80;70.00;;;;;;7593200;23;20377;-73
2023/08/27 08:34:10;;;;;;;2.80;1.27;;;22.80;69.60;;;;;;7593589;23;20145;-72
2023/08/27 08:37:11;;;;;;;1.73;1.02;;;22.80;69.40;;;;;;7593213;23;20156;-74
2023/08/27 08:40:14;;;;;;;8.60;0.90;;;22.80;69.00;;;;;;7566972;23;20013;-73
2023/08/27 08:43:18;;;;;;;1.95;0.60;;;22.80;68.90;;;;;;7593323;23;20088;-73
2023/08/27 08:46:20;;;;;;;1.42;0.60;;;22.80;68.70;;;;;;7593381;23;20032;-73
2023/08/27 08:49:22;;;;;;;4.30;1.05;;;22.80;68.50;;;;;;7566359;23;20041;-73
2023/08/27 08:52:27;;;;;;;0.70;0.50;;;22.80;68.40;;;;;;7567256;23;20158;-75
2023/08/27 08:55:57;;;;;;;1.48;0.88;;;23.10;68.50;;;;;;7592391;23;20041;-77
2023/08/27 08:58:59;;;;;;;1.05;0.60;;;22.90;68.00;;;;;;7593609;23;20014;-78
2023/08/27 09:02:00;;;;;;;0.65;0.65;;;23.00;68.00;;;;;;7593592;23;20009;-79
2023/08/27 09:05:04;;;;;;;0.93;0.60;;;23.10;67.80;;;;;;7593697;23;20462;-78
2023/08/27 09:08:08;;;;;;;0.55;0.55;;;23.00;67.60;;;;;;7567082;23;20070;-78
2023/08/27 09:11:10;;;;;;;1.10;0.60;;;23.10;67.40;;;;;;7593046;23;20026;-79
2023/08/27 09:14:14;;;;;;;2.13;1.17;;;23.20;67.20;;;;;;7567779;23;20014;-78
2023/08/27 09:17:18;;;;;;;2.08;0.90;;;23.20;66.60;;;;;;7594007;23;20085;-79
2023/08/27 09:20:19;;;;;;;1.58;0.85;;;23.30;66.40;;;;;;7592715;23;20017;-78
2023/08/27 09:23:20;;;;;;;4.05;0.77;;;23.40;66.10;;;;;;7593157;23;20005;-82
2023/08/27 09:26:20;;;;;;;0.85;0.70;;;23.70;66.10;;;;;;7592810;23;20016;-78
2023/08/27 09:29:22;;;;;;;0.70;0.52;;;23.70;65.60;;;;;;7566546;23;20185;-79
2023/08/27 09:32:23;;;;;;;3.47;0.65;;;24.00;65.20;;;;;;7567562;23;20018;-79
2023/08/27 09:35:39;;;;;;;1.17;0.80;;;24.10;64.80;;;;;;7593468;23;20006;-77
2023/08/27 09:38:43;;;;;;;4.50;1.30;;;24.30;64.20;;;;;;7594266;23;20080;-79
2023/08/27 09:41:50;;;;;;;0.85;0.80;;;24.30;64.00;;;;;;7592844;23;20696;-79
2023/08/27 09:44:54;;;;;;;0.70;0.70;;;24.30;64.30;;;;;;7567415;23;20525;-78
2023/08/27 09:47:56;;;;;;;0.40;0.40;;;24.30;64.30;;;;;;7565852;23;20014;-79
2023/08/27 09:51:07;;;;;;;0.47;0.45;;;24.40;63.90;;;;;;7566571;23;20439;-79
2023/08/27 09:54:19;;;;;;;0.63;0.43;;;24.50;63.20;;;;;;7592959;23;20017;-77
2023/08/27 09:57:20;;;;;;;1.65;0.70;;;24.60;62.80;;;;;;7592266;23;20418;-77
2023/08/27 10:00:24;;;;;;;0.65;0.55;;;24.70;62.80;;;;;;7591948;23;20010;-78
2023/08/27 10:03:26;;;;;;;1.48;0.73;;;24.80;62.20;;;;;;7593073;23;20037;-78
2023/08/27 10:06:34;;;;;;;2.83;0.60;;;24.90;60.80;;;;;;7592665;23;20032;-79
2023/08/27 10:09:35;;;;;;;0.70;0.60;;;24.90;60.20;;;;;;7566865;23;20029;-79
2023/08/27 10:12:37;;;;;;;2.67;0.70;;;24.90;59.80;;;;;;7593313;23;20315;-78
2023/08/27 10:15:38;;;;;;;0.98;0.60;;;24.90;60.20;;;;;;7592892;23;20009;-78
2023/08/27 10:18:40;;;;;;;0.65;0.47;;;25.10;60.50;;;;;;7593684;23;20470;-77
2023/08/27 10:21:42;;;;;;;1.50;0.45;;;25.30;60.10;;;;;;7592383;23;20021;-78
2023/08/27 10:24:46;;;;;;;0.50;0.50;;;25.50;59.50;;;;;;7593231;23;20021;-76
2023/08/27 10:27:49;;;;;;;1.77;0.63;;;25.60;58.90;;;;;;7566989;23;20475;-78
2023/08/27 10:30:52;;;;;;;2.63;1.30;;;25.60;59.20;;;;;;7592861;23;20006;-78
2023/08/27 10:33:53;;;;;;;0.82;0.50;;;25.60;58.60;;;;;;7566438;23;20010;-79
2023/08/27 10:37:00;;;;;;;0.77;0.73;;;25.50;57.80;;;;;;7592651;23;20021;-76
2023/08/27 10:40:07;;;;;;;0.88;0.73;;;25.40;57.30;;;;;;7592467;23;20065;-77
2023/08/27 10:43:17;;;;;;;1.40;0.90;;;25.20;57.10;;;;;;7566608;23;20078;-77
2023/08/27 10:46:21;;;;;;;2.60;0.75;;;25.00;57.30;;;;;;7566511;23;20398;-78
2023/08/27 10:49:22;;;;;;;0.70;0.70;;;24.90;57.40;;;;;;7592237;23;20017;-79
2023/08/27 10:52:26;;;;;;;1.23;0.75;;;24.80;57.40;;;;;;7566401;23;20652;-78
2023/08/27 10:55:36;;;;;;;1.30;0.82;;;24.70;56.90;;;;;;7566427;23;20032;-77
2023/08/27 10:58:41;;;;;;;1.08;0.68;;;24.50;56.80;;;;;;7592376;23;20081;-78
2023/08/27 11:01:54;;;;;;;1.30;1.05;;;24.40;56.70;;;;;;7593147;23;20081;-77
2023/08/27 11:05:05;;;;;;;2.17;0.93;;;24.50;56.80;;;;;;7565738;23;20021;-79
2023/08/27 11:08:16;;;;;;;1.45;0.70;;;24.50;56.80;;;;;;7566084;23;20040;-77
2023/08/27 11:11:31;;;;;;;1.00;0.70;;;24.50;56.70;;;;;;7566209;23;20108;-77
2023/08/27 11:14:38;;;;;;;0.90;0.70;;;24.50;56.70;;;;;;7592050;23;20022;-78
2023/08/27 11:17:40;;;;;;;0.70;0.70;;;24.50;56.90;;;;;;7591921;23;20017;-78
2023/08/27 11:20:44;;;;;;;0.60;0.50;;;24.40;57.00;;;;;;7589903;23;20025;-77
2023/08/27 11:24:06;;;;;;;1.15;0.77;;;24.40;57.30;;;;;;7592631;23;20366;-78
2023/08/27 11:27:07;;;;;;;0.82;0.80;;;24.20;57.60;;;;;;7566033;23;20465;-79
2023/08/27 11:30:08;;;;;;;2.55;0.88;;;24.00;58.30;;;;;;7566299;23;20017;-78
2023/08/27 11:33:14;;;;;;;2.33;1.27;;;24.00;58.50;;;;;;7542395;23;20094;-78
2023/08/27 11:36:15;;;;;;;5.25;0.77;;;24.10;58.50;;;;;;7592658;23;20006;-77
2023/08/27 11:39:16;;;;;;;4.13;0.95;;;24.10;58.30;;;;;;7591918;23;20322;-77
2023/08/27 11:42:17;;;;;;;3.08;1.02;;;24.10;58.40;;;;;;7591993;23;20017;-77
2023/08/27 11:45:27;;;;;;;1.02;0.80;;;23.90;58.80;;;;;;7565470;23;20096;-78
2023/08/27 11:48:28;;;;;;;1.25;0.40;;;23.70;59.40;;;;;;7592447;23;20014;-78
2023/08/27 11:51:29;;;;;;;0.60;0.57;;;23.70;59.90;;;;;;7592245;23;20002;-79
2023/08/27 11:54:31;;;;;;;0.60;0.60;;;23.40;59.70;;;;;;7592382;23;20433;-80
2023/08/27 11:57:33;;;;;;;1.88;0.60;;;23.40;59.60;;;;;;7591887;23;20085;-80
2023/08/27 12:00:35;;;;;;;1.70;0.80;;;23.40;59.10;;;;;;7541447;23;20014;-79
2023/08/27 12:03:40;;;;;;;0.55;0.55;;;23.40;58.90;;;;;;7591432;23;20017;-75
2023/08/27 12:06:51;;;;;;;0.88;0.60;;;23.40;58.50;;;;;;7564596;23;20010;-76
2023/08/27 12:09:52;;;;;;;6.72;1.00;;;23.40;57.70;;;;;;7591400;23;20359;-78
2023/08/27 12:12:53;;;;;;;0.80;0.73;;;23.40;57.60;;;;;;7567176;23;20006;-78
2023/08/27 12:15:57;;;;;;;1.23;1.10;;;23.60;57.60;;;;;;7593861;23;20010;-78
2023/08/27 12:19:08;;;;;;;1.70;0.70;;;23.90;57.30;;;;;;7567978;23;20013;-79
2023/08/27 12:22:14;;;;;;;3.75;1.10;;;24.10;56.60;;;;;;7568014;23;20018;-79
2023/08/27 12:25:15;;;;;;;1.30;0.80;;;24.30;55.80;;;;;;7594834;23;20072;-80
2023/08/27 12:28:17;;;;;;;3.38;0.88;;;24.30;55.00;;;;;;7544888;23;20009;-80
2023/08/27 12:31:23;;;;;;;6.55;1.00;;;24.30;54.80;;;;;;7568685;23;20014;-79
2023/08/27 12:34:35;;;;;;;2.33;0.77;;;24.30;54.70;;;;;;7595310;23;20006;-79
2023/08/27 12:37:36;;;;;;;1.60;0.75;;;24.20;54.30;;;;;;7568950;23;20280;-78
2023/08/27 12:40:37;;;;;;;1.67;0.98;;;24.10;54.30;;;;;;7568827;23;20018;-81
2023/08/27 12:43:39;;;;;;;0.90;0.77;;;24.00;54.20;;;;;;7568848;23;20018;-79
2023/08/27 12:46:39;;;;;;;2.92;0.90;;;24.00;54.40;;;;;;7594354;23;20005;-80
2023/08/27 12:49:43;;;;;;;1.90;0.90;;;24.00;54.50;;;;;;7594723;23;20072;-80
2023/08/27 12:52:44;;;;;;;1.60;0.95;;;23.90;54.40;;;;;;7568447;23;20148;-80
2023/08/27 12:55:44;;;;;;;0.90;0.73;;;23.90;54.30;;;;;;7594763;23;20010;-80
2023/08/27 12:58:45;;;;;;;1.67;0.80;;;23.90;54.40;;;;;;7568448;23;20010;-80
2023/08/27 13:01:47;;;;;;;1.85;0.80;;;23.90;54.50;;;;;;7568943;23;20017;-80
2023/08/27 13:04:48;;;;;;;1.48;0.80;;;23.80;54.50;;;;;;7567858;23;20128;-76
2023/08/27 13:07:49;;;;;;;4.13;0.82;;;23.80;54.60;;;;;;7567221;23;20096;-77
2023/08/27 13:10:49;;;;;;;0.70;0.63;;;23.70;54.70;;;;;;7593112;23;20084;-78
2023/08/27 13:13:51;;;;;;;2.92;0.80;;;23.70;54.80;;;;;;7567412;23;20014;-76
2023/08/27 13:16:51;;;;;;;2.60;0.88;;;23.70;54.60;;;;;;7568117;23;20342;-76
2023/08/27 13:19:52;;;;;;;1.08;0.80;;;23.60;54.60;;;;;;7593686;23;20057;-76
2023/08/27 13:22:53;;;;;;;0.52;0.52;;;23.70;54.80;;;;;;7543089;23;20017;-77
2023/08/27 13:25:54;;;;;;;2.17;1.20;;;23.70;54.60;;;;;;7567443;23;20084;-76
2023/08/27 13:28:55;;;;;;;0.73;0.68;;;23.70;54.30;;;;;;7567824;23;20026;-77
2023/08/27 13:31:56;;;;;;;3.45;1.45;;;23.70;54.50;;;;;;7566542;23;20432;-77
2023/08/27 13:34:57;;;;;;;3.20;1.30;;;23.70;54.50;;;;;;7566883;23;20009;-78
2023/08/27 13:37:58;;;;;;;2.35;1.30;;;23.80;54.50;;;;;;7592799;23;20010;-77
2023/08/27 13:40:59;;;;;;;2.58;1.13;;;23.80;54.40;;;;;;7592970;23;20030;-76
2023/08/27 13:44:00;;;;;;;2.63;1.20;;;23.90;54.50;;;;;;7592589;23;20013;-77
2023/08/27 13:47:01;;;;;;;2.38;1.00;;;24.00;54.70;;;;;;7593191;23;20009;-78
2023/08/27 13:50:02;;;;;;;2.47;1.23;;;23.80;54.70;;;;;;7592623;23;20033;-78
2023/08/27 13:53:03;;;;;;;5.32;1.00;;;23.70;54.80;;;;;;7592768;23;20013;-75
2023/08/27 13:56:04;;;;;;;2.42;1.15;;;23.70;55.00;;;;;;7593085;23;20356;-77
2023/08/27 13:59:05;;;;;;;3.72;1.48;;;23.50;55.20;;;;;;7593045;23;20033;-77
2023/08/27 14:02:07;;;;;;;1.33;1.00;;;23.40;55.60;;;;;;7566180;23;20396;-77
2023/08/27 14:05:08;;;;;;;1.40;0.77;;;23.30;56.00;;;;;;7592653;23;20005;-77
2023/08/27 14:08:09;;;;;;;5.15;1.00;;;23.20;55.90;;;;;;7566254;23;20025;-78
2023/08/27 14:11:10;;;;;;;7.65;0.50;;;23.20;55.90;;;;;;7592696;23;20009;-77
2023/08/27 14:14:11;;;;;;;0.95;0.60;;;23.20;55.90;;;;;;7566642;23;20006;-78
2023/08/27 14:17:16;;;;;;;2.72;0.70;;;23.20;55.90;;;;;;7592786;23;20017;-78
2023/08/27 14:20:17;;;;;;;1.27;0.80;;;23.20;55.80;;;;;;7591984;23;20014;-78
2023/08/27 14:23:20;;;;;;;3.50;0.80;;;23.30;55.80;;;;;;7565841;23;20021;-78
2023/08/27 14:26:21;;;;;;;1.88;1.02;;;23.40;55.40;;;;;;7565758;23;20018;-75
2023/08/27 14:29:22;;;;;;;2.22;1.00;;;23.50;55.20;;;;;;7592024;23;20141;-76
2023/08/27 14:32:23;;;;;;;1.15;0.88;;;23.60;55.00;;;;;;7566163;23;20378;-77
2023/08/27 14:35:24;;;;;;;3.65;0.70;;;23.60;54.50;;;;;;7565665;23;20041;-77
2023/08/27 14:38:25;;;;;;;2.25;0.90;;;23.70;54.30;;;;;;7565939;23;20013;-77
2023/08/27 14:41:26;;;;;;;0.60;0.60;;;23.80;53.80;;;;;;7566124;23;20009;-77
2023/08/27 14:44:27;;;;;;;5.00;0.80;;;23.70;53.50;;;;;;7592496;23;20057;-77
2023/08/27 14:47:28;;;;;;;1.08;0.73;;;23.70;53.30;;;;;;7566264;23;20002;-78
2023/08/27 14:50:29;;;;;;;0.88;0.70;;;23.60;53.40;;;;;;7541707;23;20061;-78
2023/08/27 14:53:29;;;;;;;5.88;0.88;;;23.50;53.50;;;;;;7592319;23;20017;-77
2023/08/27 14:56:30;;;;;;;2.47;0.80;;;23.40;53.70;;;;;;7591334;23;20338;-77
2023/08/27 14:59:42;;;;;;;0.98;0.50;;;23.40;54.10;;;;;;7565411;23;20086;-77
2023/08/27 15:02:43;;;;;;;1.13;0.70;;;23.40;54.60;;;;;;7592023;23;20050;-78
2023/08/27 15:05:43;;;;;;;1.08;0.65;;;23.30;54.20;;;;;;7541001;23;20010;-77
2023/08/27 15:08:47;;;;;;;1.45;0.60;;;23.20;54.00;;;;;;7565830;23;20013;-78
2023/08/27 15:11:49;;;;;;;4.43;0.90;;;23.20;54.20;;;;;;7564832;23;20364;-77
2023/08/27 15:14:50;;;;;;;3.05;0.63;;;23.20;54.30;;;;;;7591862;23;20387;-79
2023/08/27 15:17:51;;;;;;;1.40;0.70;;;23.10;54.20;;;;;;7565378;23;20010;-77
2023/08/27 15:20:52;;;;;;;2.38;0.77;;;23.10;54.20;;;;;;7590628;23;20016;-77
2023/08/27 15:23:53;;;;;;;1.63;0.90;;;23.20;54.20;;;;;;7592343;23;20094;-76
2023/08/27 15:26:54;;;;;;;1.23;0.80;;;23.20;54.10;;;;;;7542111;23;20029;-79
2023/08/27 15:29:55;;;;;;;5.90;0.70;;;23.20;54.10;;;;;;7565798;23;20010;-76
2023/08/27 15:32:56;;;;;;;1.40;0.93;;;23.20;54.10;;;;;;7593145;23;20088;-77
2023/08/27 15:35:56;;;;;;;0.50;0.50;;;23.20;54.00;;;;;;7591073;23;20567;-76
2023/08/27 15:38:57;;;;;;;2.40;0.93;;;23.20;54.00;;;;;;7592183;23;20064;-75
2023/08/27 15:41:59;;;;;;;1.80;0.68;;;23.20;53.90;;;;;;7565514;23;20093;-79
2023/08/27 15:45:00;;;;;;;1.08;0.52;;;23.20;53.70;;;;;;7592381;23;20021;-79
2023/08/27 15:48:01;;;;;;;1.05;0.60;;;23.20;53.90;;;;;;7594506;23;20016;-79
2023/08/27 15:51:02;;;;;;;6.68;0.70;;;23.20;54.50;;;;;;7568714;23;20335;-77